sensor_id;sensor_type;location;lat;lon;timestamp;pressure;altitude;pressure_sealevel;temperature;humidity
61488;BME280;47351;53.326;-6.298;2023-07-31T00:01:15;99915.96;;;16.71;95.18
61488;BME280;47351;53.326;-6.298;2023-07-31T00:04:06;99914.77;;;16.68;95.38
61488;BME280;47351;53.326;-6.298;2023-07-31T00:06:56;99910.99;;;16.66;95.55
61488;BME280;47351;53.326;-6.298;2023-07-31T00:09:47;99911.70;;;16.66;95.60
61488;BME280;47351;53.326;-6.298;2023-07-31T00:12:37;99908.08;;;16.67;95.67
61488;BME280;47351;53.326;-6.298;2023-07-31T00:15:28;99904.55;;;16.67;95.55
61488;BME280;47351;53.326;-6.298;2023-07-31T00:18:19;99905.14;;;16.68;95.44
61488;BME280;47351;53.326;-6.298;2023-07-31T00:21:09;99899.80;;;16.69;95.34
61488;BME280;47351;53.326;-6.298;2023-07-31T00:24:00;99897.14;;;16.69;95.13
61488;BME280;47351;53.326;-6.298;2023-07-31T00:26:50;99893.45;;;16.67;94.95
61488;BME280;47351;53.326;-6.298;2023-07-31T00:29:41;99892.60;;;16.65;94.95
61488;BME280;47351;53.326;-6.298;2023-07-31T00:32:32;99890.86;;;16.64;94.88
61488;BME280;47351;53.326;-6.298;2023-07-31T00:35:22;99886.17;;;16.62;94.91
61488;BME280;47351;53.326;-6.298;2023-07-31T00:38:14;99887.46;;;16.62;94.77
61488;BME280;47351;53.326;-6.298;2023-07-31T00:41:04;99888.21;;;16.62;94.74
61488;BME280;47351;53.326;-6.298;2023-07-31T00:43:55;99881.95;;;16.62;94.64
61488;BME280;47351;53.326;-6.298;2023-07-31T00:46:45;99879.70;;;16.61;94.53
61488;BME280;47351;53.326;-6.298;2023-07-31T00:49:36;99875.66;;;16.60;94.55
61488;BME280;47351;53.326;-6.298;2023-07-31T00:52:26;99875.40;;;16.58;94.47
61488;BME280;47351;53.326;-6.298;2023-07-31T00:55:18;99882.16;;;16.58;94.52
61488;BME280;47351;53.326;-6.298;2023-07-31T00:58:08;99886.16;;;16.58;94.52
61488;BME280;47351;53.326;-6.298;2023-07-31T01:01:00;99888.62;;;16.58;94.48
61488;BME280;47351;53.326;-6.298;2023-07-31T01:03:51;99888.90;;;16.57;94.41
61488;BME280;47351;53.326;-6.298;2023-07-31T01:06:44;99893.90;;;16.55;94.28
61488;BME280;47351;53.326;-6.298;2023-07-31T01:09:40;99892.30;;;16.52;94.61
61488;BME280;47351;53.326;-6.298;2023-07-31T01:12:33;99889.91;;;16.49;94.62
61488;BME280;47351;53.326;-6.298;2023-07-31T01:15:25;99895.88;;;16.45;94.66
61488;BME280;47351;53.326;-6.298;2023-07-31T01:18:16;99894.69;;;16.42;94.84
61488;BME280;47351;53.326;-6.298;2023-07-31T01:21:14;99883.11;;;16.40;95.05
61488;BME280;47351;53.326;-6.298;2023-07-31T01:24:14;99885.31;;;16.39;95.09
61488;BME280;47351;53.326;-6.298;2023-07-31T01:27:11;99885.40;;;16.40;95.12
61488;BME280;47351;53.326;-6.298;2023-07-31T01:30:05;99882.98;;;16.41;95.29
61488;BME280;47351;53.326;-6.298;2023-07-31T01:33:00;99877.48;;;16.41;95.14
61488;BME280;47351;53.326;-6.298;2023-07-31T01:35:55;99875.25;;;16.40;95.34
61488;BME280;47351;53.326;-6.298;2023-07-31T01:38:46;99868.90;;;16.38;95.25
61488;BME280;47351;53.326;-6.298;2023-07-31T01:41:37;99868.02;;;16.34;95.44
61488;BME280;47351;53.326;-6.298;2023-07-31T01:44:27;99867.52;;;16.30;95.63
61488;BME280;47351;53.326;-6.298;2023-07-31T01:47:18;99863.64;;;16.28;95.79
61488;BME280;47351;53.326;-6.298;2023-07-31T01:50:09;99870.04;;;16.26;96.03
61488;BME280;47351;53.326;-6.298;2023-07-31T01:53:00;99875.74;;;16.26;96.14
61488;BME280;47351;53.326;-6.298;2023-07-31T01:55:50;99875.59;;;16.24;96.26
61488;BME280;47351;53.326;-6.298;2023-07-31T01:58:41;99876.83;;;16.23;96.31
61488;BME280;47351;53.326;-6.298;2023-07-31T02:01:31;99879.55;;;16.21;96.39
61488;BME280;47351;53.326;-6.298;2023-07-31T02:04:22;99873.77;;;16.21;96.40
61488;BME280;47351;53.326;-6.298;2023-07-31T02:07:12;99880.70;;;16.22;96.42
61488;BME280;47351;53.326;-6.298;2023-07-31T02:10:03;99883.31;;;16.23;96.43
61488;BME280;47351;53.326;-6.298;2023-07-31T02:12:54;99884.15;;;16.24;96.49
61488;BME280;47351;53.326;-6.298;2023-07-31T02:15:44;99888.92;;;16.22;96.54
61488;BME280;47351;53.326;-6.298;2023-07-31T02:18:35;99887.02;;;16.22;96.53
61488;BME280;47351;53.326;-6.298;2023-07-31T02:21:26;99884.95;;;16.21;96.50
61488;BME280;47351;53.326;-6.298;2023-07-31T02:24:16;99885.54;;;16.21;96.47
61488;BME280;47351;53.326;-6.298;2023-07-31T02:27:07;99890.02;;;16.21;96.38
61488;BME280;47351;53.326;-6.298;2023-07-31T02:29:57;99885.56;;;16.22;96.47
61488;BME280;47351;53.326;-6.298;2023-07-31T02:32:49;99882.48;;;16.24;96.37
61488;BME280;47351;53.326;-6.298;2023-07-31T02:35:39;99877.69;;;16.26;96.35
61488;BME280;47351;53.326;-6.298;2023-07-31T02:38:30;99878.48;;;16.28;96.09
61488;BME280;47351;53.326;-6.298;2023-07-31T02:41:20;99875.80;;;16.30;96.09
61488;BME280;47351;53.326;-6.298;2023-07-31T02:44:11;99872.86;;;16.31;95.84
61488;BME280;47351;53.326;-6.298;2023-07-31T02:47:03;99869.73;;;16.31;95.74
61488;BME280;47351;53.326;-6.298;2023-07-31T02:49:54;99870.86;;;16.31;95.53
61488;BME280;47351;53.326;-6.298;2023-07-31T02:52:45;99878.21;;;16.31;95.43
61488;BME280;47351;53.326;-6.298;2023-07-31T02:55:36;99878.80;;;16.31;95.39
61488;BME280;47351;53.326;-6.298;2023-07-31T02:58:27;99875.77;;;16.31;95.36
61488;BME280;47351;53.326;-6.298;2023-07-31T03:01:18;99876.07;;;16.28;95.32
61488;BME280;47351;53.326;-6.298;2023-07-31T03:04:09;99870.17;;;16.26;95.38
61488;BME280;47351;53.326;-6.298;2023-07-31T03:06:59;99867.27;;;16.23;95.40
61488;BME280;47351;53.326;-6.298;2023-07-31T03:09:50;99863.05;;;16.21;95.61
61488;BME280;47351;53.326;-6.298;2023-07-31T03:12:41;99868.84;;;16.18;95.73
61488;BME280;47351;53.326;-6.298;2023-07-31T03:15:32;99874.42;;;16.15;95.76
61488;BME280;47351;53.326;-6.298;2023-07-31T03:18:23;99868.52;;;16.15;95.85
61488;BME280;47351;53.326;-6.298;2023-07-31T03:21:14;99865.04;;;16.14;95.77
61488;BME280;47351;53.326;-6.298;2023-07-31T03:24:04;99861.77;;;16.15;95.76
61488;BME280;47351;53.326;-6.298;2023-07-31T03:26:55;99868.48;;;16.15;95.76
61488;BME280;47351;53.326;-6.298;2023-07-31T03:29:46;99865.48;;;16.16;95.76
61488;BME280;47351;53.326;-6.298;2023-07-31T03:32:36;99859.92;;;16.18;95.71
61488;BME280;47351;53.326;-6.298;2023-07-31T03:35:27;99850.83;;;16.19;95.61
61488;BME280;47351;53.326;-6.298;2023-07-31T03:38:17;99852.46;;;16.21;95.58
61488;BME280;47351;53.326;-6.298;2023-07-31T03:41:08;99852.91;;;16.23;95.46
61488;BME280;47351;53.326;-6.298;2023-07-31T03:43:59;99854.61;;;16.24;95.46
61488;BME280;47351;53.326;-6.298;2023-07-31T03:46:50;99849.99;;;16.23;95.26
61488;BME280;47351;53.326;-6.298;2023-07-31T03:49:41;99843.67;;;16.23;95.19
61488;BME280;47351;53.326;-6.298;2023-07-31T03:52:31;99837.56;;;16.23;95.21
61488;BME280;47351;53.326;-6.298;2023-07-31T03:55:22;99833.41;;;16.23;95.23
61488;BME280;47351;53.326;-6.298;2023-07-31T03:58:12;99836.70;;;16.24;95.12
61488;BME280;47351;53.326;-6.298;2023-07-31T04:01:03;99844.13;;;16.25;95.10
61488;BME280;47351;53.326;-6.298;2023-07-31T04:03:53;99848.35;;;16.26;95.08
61488;BME280;47351;53.326;-6.298;2023-07-31T04:06:44;99848.27;;;16.26;94.97
61488;BME280;47351;53.326;-6.298;2023-07-31T04:09:34;99842.50;;;16.25;94.97
61488;BME280;47351;53.326;-6.298;2023-07-31T04:12:25;99842.35;;;16.24;94.83
61488;BME280;47351;53.326;-6.298;2023-07-31T04:15:16;99841.98;;;16.22;94.83
61488;BME280;47351;53.326;-6.298;2023-07-31T04:18:07;99843.84;;;16.21;94.75
61488;BME280;47351;53.326;-6.298;2023-07-31T04:20:58;99849.61;;;16.20;94.74
61488;BME280;47351;53.326;-6.298;2023-07-31T04:23:50;99858.95;;;16.20;94.82
61488;BME280;47351;53.326;-6.298;2023-07-31T04:26:40;99865.13;;;16.21;94.82
61488;BME280;47351;53.326;-6.298;2023-07-31T04:29:31;99873.14;;;16.22;94.87
61488;BME280;47351;53.326;-6.298;2023-07-31T04:32:21;99877.00;;;16.23;94.79
61488;BME280;47351;53.326;-6.298;2023-07-31T04:35:12;99863.91;;;16.22;94.69
61488;BME280;47351;53.326;-6.298;2023-07-31T04:38:02;99855.36;;;16.21;94.66
61488;BME280;47351;53.326;-6.298;2023-07-31T04:40:53;99858.27;;;16.20;94.67
61488;BME280;47351;53.326;-6.298;2023-07-31T04:43:43;99860.06;;;16.19;94.56
61488;BME280;47351;53.326;-6.298;2023-07-31T04:46:34;99854.55;;;16.19;94.61
61488;BME280;47351;53.326;-6.298;2023-07-31T04:49:25;99849.98;;;16.18;94.60
61488;BME280;47351;53.326;-6.298;2023-07-31T04:52:16;99852.02;;;16.18;94.56
61488;BME280;47351;53.326;-6.298;2023-07-31T04:55:07;99847.56;;;16.19;94.66
61488;BME280;47351;53.326;-6.298;2023-07-31T04:57:57;99844.86;;;16.21;94.66
61488;BME280;47351;53.326;-6.298;2023-07-31T05:00:48;99842.85;;;16.22;94.66
61488;BME280;47351;53.326;-6.298;2023-07-31T05:03:38;99851.23;;;16.25;94.47
61488;BME280;47351;53.326;-6.298;2023-07-31T05:06:29;99864.52;;;16.26;94.42
61488;BME280;47351;53.326;-6.298;2023-07-31T05:09:19;99872.91;;;16.27;94.30
61488;BME280;47351;53.326;-6.298;2023-07-31T05:12:10;99877.65;;;16.27;94.17
61488;BME280;47351;53.326;-6.298;2023-07-31T05:15:00;99882.30;;;16.26;93.93
61488;BME280;47351;53.326;-6.298;2023-07-31T05:17:51;99882.15;;;16.25;93.95
61488;BME280;47351;53.326;-6.298;2023-07-31T05:20:42;99883.48;;;16.25;93.84
61488;BME280;47351;53.326;-6.298;2023-07-31T05:23:32;99882.73;;;16.23;93.86
61488;BME280;47351;53.326;-6.298;2023-07-31T05:26:23;99876.13;;;16.23;93.72
61488;BME280;47351;53.326;-6.298;2023-07-31T05:29:13;99877.88;;;16.22;93.79
61488;BME280;47351;53.326;-6.298;2023-07-31T05:32:04;99876.83;;;16.23;93.80
61488;BME280;47351;53.326;-6.298;2023-07-31T05:34:55;99874.88;;;16.22;93.68
61488;BME280;47351;53.326;-6.298;2023-07-31T05:37:45;99871.52;;;16.21;93.53
61488;BME280;47351;53.326;-6.298;2023-07-31T05:40:36;99867.96;;;16.18;93.46
61488;BME280;47351;53.326;-6.298;2023-07-31T05:43:28;99868.23;;;16.15;93.63
61488;BME280;47351;53.326;-6.298;2023-07-31T05:46:19;99866.38;;;16.11;93.72
61488;BME280;47351;53.326;-6.298;2023-07-31T05:49:10;99867.59;;;16.09;93.85
61488;BME280;47351;53.326;-6.298;2023-07-31T05:52:06;99868.77;;;16.09;94.27
61488;BME280;47351;53.326;-6.298;2023-07-31T05:54:57;99866.70;;;16.08;94.33
61488;BME280;47351;53.326;-6.298;2023-07-31T05:57:54;99867.02;;;16.08;94.45
61488;BME280;47351;53.326;-6.298;2023-07-31T06:00:49;99866.52;;;16.08;94.48
61488;BME280;47351;53.326;-6.298;2023-07-31T06:03:40;99864.20;;;16.05;94.59
61488;BME280;47351;53.326;-6.298;2023-07-31T06:06:31;99862.35;;;16.02;94.58
61488;BME280;47351;53.326;-6.298;2023-07-31T06:09:24;99851.59;;;15.96;94.72
61488;BME280;47351;53.326;-6.298;2023-07-31T06:12:14;99844.52;;;15.93;94.90
61488;BME280;47351;53.326;-6.298;2023-07-31T06:15:07;99837.17;;;15.87;95.06
61488;BME280;47351;53.326;-6.298;2023-07-31T06:18:01;99839.35;;;15.84;95.39
61488;BME280;47351;53.326;-6.298;2023-07-31T06:20:53;99836.79;;;15.81;95.52
61488;BME280;47351;53.326;-6.298;2023-07-31T06:23:44;99833.04;;;15.81;95.55
61488;BME280;47351;53.326;-6.298;2023-07-31T06:26:34;99825.33;;;15.81;95.40
61488;BME280;47351;53.326;-6.298;2023-07-31T06:29:27;99818.34;;;15.83;95.38
61488;BME280;47351;53.326;-6.298;2023-07-31T06:32:20;99816.29;;;15.85;95.18
61488;BME280;47351;53.326;-6.298;2023-07-31T06:35:11;99815.29;;;15.85;95.00
61488;BME280;47351;53.326;-6.298;2023-07-31T06:38:04;99819.07;;;15.86;94.97
61488;BME280;47351;53.326;-6.298;2023-07-31T06:40:55;99822.02;;;15.84;94.83
61488;BME280;47351;53.326;-6.298;2023-07-31T06:43:48;99824.45;;;15.83;94.77
61488;BME280;47351;53.326;-6.298;2023-07-31T06:46:42;99833.10;;;15.84;94.64
61488;BME280;47351;53.326;-6.298;2023-07-31T06:49:33;99841.91;;;15.84;94.67
61488;BME280;47351;53.326;-6.298;2023-07-31T06:52:24;99848.52;;;15.85;94.45
61488;BME280;47351;53.326;-6.298;2023-07-31T06:55:19;99846.89;;;15.86;94.30
61488;BME280;47351;53.326;-6.298;2023-07-31T06:58:21;99849.61;;;15.90;94.18
61488;BME280;47351;53.326;-6.298;2023-07-31T07:01:18;99848.35;;;15.91;93.86
61488;BME280;47351;53.326;-6.298;2023-07-31T07:04:08;99837.60;;;15.92;93.58
61488;BME280;47351;53.326;-6.298;2023-07-31T07:06:59;99829.33;;;15.95;93.45
61488;BME280;47351;53.326;-6.298;2023-07-31T07:09:49;99820.09;;;15.99;93.33
61488;BME280;47351;53.326;-6.298;2023-07-31T07:12:40;99809.86;;;16.01;93.04
61488;BME280;47351;53.326;-6.298;2023-07-31T07:15:31;99814.14;;;16.01;92.96
61488;BME280;47351;53.326;-6.298;2023-07-31T07:18:21;99820.84;;;16.05;92.92
61488;BME280;47351;53.326;-6.298;2023-07-31T07:21:12;99817.52;;;16.11;92.86
61488;BME280;47351;53.326;-6.298;2023-07-31T07:24:07;99827.51;;;16.16;92.67
61488;BME280;47351;53.326;-6.298;2023-07-31T07:26:58;99835.96;;;16.19;92.24
61488;BME280;47351;53.326;-6.298;2023-07-31T07:29:55;99838.17;;;16.20;92.11
61488;BME280;47351;53.326;-6.298;2023-07-31T07:32:54;99840.71;;;16.18;91.77
61488;BME280;47351;53.326;-6.298;2023-07-31T07:35:44;99839.39;;;16.16;91.59
61488;BME280;47351;53.326;-6.298;2023-07-31T07:38:35;99838.82;;;16.14;91.65
61488;BME280;47351;53.326;-6.298;2023-07-31T07:41:26;99837.91;;;16.13;91.72
61488;BME280;47351;53.326;-6.298;2023-07-31T07:44:16;99834.81;;;16.09;91.87
61488;BME280;47351;53.326;-6.298;2023-07-31T07:47:07;99829.02;;;16.04;92.01
61488;BME280;47351;53.326;-6.298;2023-07-31T07:49:58;99821.39;;;16.04;92.29
61488;BME280;47351;53.326;-6.298;2023-07-31T07:52:48;99812.52;;;16.08;92.50
61488;BME280;47351;53.326;-6.298;2023-07-31T07:55:39;99809.48;;;16.11;92.44
61488;BME280;47351;53.326;-6.298;2023-07-31T07:58:30;99809.98;;;16.15;92.14
61488;BME280;47351;53.326;-6.298;2023-07-31T08:01:20;99799.81;;;16.21;92.40
61488;BME280;47351;53.326;-6.298;2023-07-31T08:04:11;99797.53;;;16.22;92.13
61488;BME280;47351;53.326;-6.298;2023-07-31T08:07:01;99801.30;;;16.24;91.98
61488;BME280;47351;53.326;-6.298;2023-07-31T08:09:52;99808.86;;;16.24;92.04
61488;BME280;47351;53.326;-6.298;2023-07-31T08:12:42;99808.85;;;16.25;91.95
61488;BME280;47351;53.326;-6.298;2023-07-31T08:15:33;99804.46;;;16.29;91.83
61488;BME280;47351;53.326;-6.298;2023-07-31T08:18:24;99809.14;;;16.38;91.73
61488;BME280;47351;53.326;-6.298;2023-07-31T08:21:14;99830.09;;;16.44;90.97
61488;BME280;47351;53.326;-6.298;2023-07-31T08:24:05;99841.79;;;16.48;90.57
61488;BME280;47351;53.326;-6.298;2023-07-31T08:26:56;99848.03;;;16.52;90.44
61488;BME280;47351;53.326;-6.298;2023-07-31T08:29:47;99853.97;;;16.58;90.28
61488;BME280;47351;53.326;-6.298;2023-07-31T08:32:37;99867.23;;;16.61;89.92
61488;BME280;47351;53.326;-6.298;2023-07-31T08:35:28;99869.94;;;16.60;89.84
61488;BME280;47351;53.326;-6.298;2023-07-31T08:38:19;99868.58;;;16.52;89.82
61488;BME280;47351;53.326;-6.298;2023-07-31T08:41:09;99866.09;;;16.41;89.69
61488;BME280;47351;53.326;-6.298;2023-07-31T08:44:00;99851.86;;;16.33;89.45
61488;BME280;47351;53.326;-6.298;2023-07-31T08:46:51;99851.17;;;16.34;89.20
61488;BME280;47351;53.326;-6.298;2023-07-31T08:49:43;99848.41;;;16.44;88.63
61488;BME280;47351;53.326;-6.298;2023-07-31T08:52:34;99838.69;;;16.63;88.05
61488;BME280;47351;53.326;-6.298;2023-07-31T08:55:24;99836.73;;;16.88;87.43
61488;BME280;47351;53.326;-6.298;2023-07-31T08:58:15;99824.83;;;17.13;86.67
61488;BME280;47351;53.326;-6.298;2023-07-31T09:01:07;99814.08;;;17.19;86.71
61488;BME280;47351;53.326;-6.298;2023-07-31T09:03:58;99814.20;;;17.18;86.63
61488;BME280;47351;53.326;-6.298;2023-07-31T09:06:50;99806.48;;;17.17;86.62
61488;BME280;47351;53.326;-6.298;2023-07-31T09:09:46;99804.29;;;17.20;86.68
61488;BME280;47351;53.326;-6.298;2023-07-31T09:12:37;99804.56;;;17.22;86.36
61488;BME280;47351;53.326;-6.298;2023-07-31T09:15:28;99796.90;;;17.22;85.99
61488;BME280;47351;53.326;-6.298;2023-07-31T09:18:26;99799.14;;;17.19;85.71
61488;BME280;47351;53.326;-6.298;2023-07-31T09:21:17;99808.09;;;17.13;85.76
61488;BME280;47351;53.326;-6.298;2023-07-31T09:24:07;99822.27;;;17.10;85.41
61488;BME280;47351;53.326;-6.298;2023-07-31T09:26:58;99830.01;;;17.05;85.28
61488;BME280;47351;53.326;-6.298;2023-07-31T09:29:58;99831.15;;;17.00;85.07
61488;BME280;47351;53.326;-6.298;2023-07-31T09:32:49;99841.77;;;16.94;85.19
61488;BME280;47351;53.326;-6.298;2023-07-31T09:35:40;99845.95;;;16.89;85.54
61488;BME280;47351;53.326;-6.298;2023-07-31T09:38:31;99855.77;;;16.84;85.88
61488;BME280;47351;53.326;-6.298;2023-07-31T09:41:21;99857.29;;;16.73;86.15
61488;BME280;47351;53.326;-6.298;2023-07-31T09:44:12;99859.23;;;16.64;86.62
61488;BME280;47351;53.326;-6.298;2023-07-31T09:47:03;99860.56;;;16.56;87.01
61488;BME280;47351;53.326;-6.298;2023-07-31T09:49:53;99864.23;;;16.47;87.14
61488;BME280;47351;53.326;-6.298;2023-07-31T09:52:44;99864.57;;;16.41;87.41
61488;BME280;47351;53.326;-6.298;2023-07-31T09:55:34;99860.77;;;16.42;87.58
61488;BME280;47351;53.326;-6.298;2023-07-31T09:58:25;99855.83;;;16.41;87.28
61488;BME280;47351;53.326;-6.298;2023-07-31T10:01:18;99852.96;;;16.41;87.49
61488;BME280;47351;53.326;-6.298;2023-07-31T10:04:09;99843.60;;;16.49;87.38
61488;BME280;47351;53.326;-6.298;2023-07-31T10:07:00;99839.65;;;16.66;86.96
61488;BME280;47351;53.326;-6.298;2023-07-31T10:09:53;99835.44;;;16.85;86.52
61488;BME280;47351;53.326;-6.298;2023-07-31T10:12:45;99829.83;;;16.94;86.35
61488;BME280;47351;53.326;-6.298;2023-07-31T10:15:36;99829.52;;;16.91;86.38
61488;BME280;47351;53.326;-6.298;2023-07-31T10:18:27;99829.24;;;16.83;86.63
61488;BME280;47351;53.326;-6.298;2023-07-31T10:21:18;99824.11;;;16.73;86.90
61488;BME280;47351;53.326;-6.298;2023-07-31T10:24:09;99823.43;;;16.63;87.06
61488;BME280;47351;53.326;-6.298;2023-07-31T10:27:00;99819.99;;;16.49;87.38
61488;BME280;47351;53.326;-6.298;2023-07-31T10:29:52;99823.96;;;16.34;87.74
61488;BME280;47351;53.326;-6.298;2023-07-31T10:32:43;99828.09;;;16.30;88.04
61488;BME280;47351;53.326;-6.298;2023-07-31T10:35:34;99829.02;;;16.40;88.20
61488;BME280;47351;53.326;-6.298;2023-07-31T10:38:24;99826.75;;;16.52;88.24
61488;BME280;47351;53.326;-6.298;2023-07-31T10:41:15;99836.27;;;16.59;88.19
61488;BME280;47351;53.326;-6.298;2023-07-31T10:44:05;99841.16;;;16.60;88.29
61488;BME280;47351;53.326;-6.298;2023-07-31T10:46:57;99843.30;;;16.59;88.55
61488;BME280;47351;53.326;-6.298;2023-07-31T10:49:48;99842.43;;;16.57;88.66
61488;BME280;47351;53.326;-6.298;2023-07-31T10:52:38;99837.78;;;16.56;88.96
61488;BME280;47351;53.326;-6.298;2023-07-31T10:55:30;99833.77;;;16.65;89.00
61488;BME280;47351;53.326;-6.298;2023-07-31T10:58:21;99827.77;;;16.79;88.93
61488;BME280;47351;53.326;-6.298;2023-07-31T11:01:12;99821.79;;;16.90;88.71
61488;BME280;47351;53.326;-6.298;2023-07-31T11:04:09;99817.70;;;17.04;88.31
61488;BME280;47351;53.326;-6.298;2023-07-31T11:07:01;99811.52;;;17.05;87.89
61488;BME280;47351;53.326;-6.298;2023-07-31T11:09:53;99805.66;;;16.99;87.69
61488;BME280;47351;53.326;-6.298;2023-07-31T11:12:44;99809.91;;;16.92;87.51
61488;BME280;47351;53.326;-6.298;2023-07-31T11:15:35;99807.22;;;16.96;87.47
61488;BME280;47351;53.326;-6.298;2023-07-31T11:18:26;99807.23;;;17.09;86.96
61488;BME280;47351;53.326;-6.298;2023-07-31T11:21:17;99808.20;;;17.24;86.72
61488;BME280;47351;53.326;-6.298;2023-07-31T11:24:08;99809.20;;;17.39;86.33
61488;BME280;47351;53.326;-6.298;2023-07-31T11:26:58;99813.41;;;17.51;85.87
61488;BME280;47351;53.326;-6.298;2023-07-31T11:29:52;99815.35;;;17.47;85.65
61488;BME280;47351;53.326;-6.298;2023-07-31T11:32:42;99812.46;;;17.30;85.62
61488;BME280;47351;53.326;-6.298;2023-07-31T11:35:34;99802.67;;;17.22;85.74
61488;BME280;47351;53.326;-6.298;2023-07-31T11:38:25;99803.92;;;17.23;85.92
61488;BME280;47351;53.326;-6.298;2023-07-31T11:41:16;99807.73;;;17.34;85.85
61488;BME280;47351;53.326;-6.298;2023-07-31T11:44:07;99807.58;;;17.50;86.00
61488;BME280;47351;53.326;-6.298;2023-07-31T11:47:15;99801.39;;;17.59;85.29
61488;BME280;47351;53.326;-6.298;2023-07-31T11:50:10;99791.88;;;17.81;84.88
61488;BME280;47351;53.326;-6.298;2023-07-31T11:53:01;99800.80;;;18.28;83.71
61488;BME280;47351;53.326;-6.298;2023-07-31T11:55:54;99798.34;;;18.53;82.55
61488;BME280;47351;53.326;-6.298;2023-07-31T11:58:48;99794.58;;;18.76;81.97
61488;BME280;47351;53.326;-6.298;2023-07-31T12:01:39;99797.58;;;19.04;81.19
61488;BME280;47351;53.326;-6.298;2023-07-31T12:04:30;99795.70;;;19.48;79.15
61488;BME280;47351;53.326;-6.298;2023-07-31T12:07:21;99796.71;;;20.09;77.76
61488;BME280;47351;53.326;-6.298;2023-07-31T12:10:11;99791.87;;;20.68;77.27
61488;BME280;47351;53.326;-6.298;2023-07-31T12:13:02;99782.95;;;20.89;76.11
61488;BME280;47351;53.326;-6.298;2023-07-31T12:15:55;99787.78;;;21.58;74.26
61488;BME280;47351;53.326;-6.298;2023-07-31T12:18:49;99779.23;;;22.39;71.28
61488;BME280;47351;53.326;-6.298;2023-07-31T12:21:39;99765.21;;;22.77;69.44
61488;BME280;47351;53.326;-6.298;2023-07-31T12:24:30;99761.11;;;22.62;68.37
61488;BME280;47351;53.326;-6.298;2023-07-31T12:27:20;99752.23;;;22.37;67.91
61488;BME280;47351;53.326;-6.298;2023-07-31T12:33:18;99740.82;;;23.39;66.73
61488;BME280;47351;53.326;-6.298;2023-07-31T12:36:09;99735.02;;;23.49;65.97
61488;BME280;47351;53.326;-6.298;2023-07-31T12:39:00;99736.13;;;24.22;63.30
61488;BME280;47351;53.326;-6.298;2023-07-31T12:41:50;99726.55;;;25.05;61.48
61488;BME280;47351;53.326;-6.298;2023-07-31T12:44:41;99721.93;;;25.96;60.64
61488;BME280;47351;53.326;-6.298;2023-07-31T12:47:31;99713.05;;;27.34;58.11
61488;BME280;47351;53.326;-6.298;2023-07-31T12:50:22;99707.05;;;28.13;55.40
61488;BME280;47351;53.326;-6.298;2023-07-31T12:53:13;99699.20;;;28.88;53.69
61488;BME280;47351;53.326;-6.298;2023-07-31T12:56:03;99697.64;;;29.29;51.50
61488;BME280;47351;53.326;-6.298;2023-07-31T12:58:54;99699.02;;;28.88;49.79
61488;BME280;47351;53.326;-6.298;2023-07-31T13:01:44;99696.71;;;27.62;50.54
61488;BME280;47351;53.326;-6.298;2023-07-31T13:04:35;99695.73;;;27.47;51.65
61488;BME280;47351;53.326;-6.298;2023-07-31T13:07:26;99689.80;;;27.54;51.73
61488;BME280;47351;53.326;-6.298;2023-07-31T13:10:16;99691.89;;;27.83;50.41
61488;BME280;47351;53.326;-6.298;2023-07-31T13:13:07;99690.31;;;27.66;49.95
61488;BME280;47351;53.326;-6.298;2023-07-31T13:15:57;99690.35;;;26.79;50.58
61488;BME280;47351;53.326;-6.298;2023-07-31T13:18:48;99694.10;;;25.94;52.12
61488;BME280;47351;53.326;-6.298;2023-07-31T13:21:40;99688.13;;;25.65;51.91
61488;BME280;47351;53.326;-6.298;2023-07-31T13:24:30;99689.65;;;25.57;52.27
61488;BME280;47351;53.326;-6.298;2023-07-31T13:27:21;99694.00;;;25.64;52.17
61488;BME280;47351;53.326;-6.298;2023-07-31T13:30:13;99686.11;;;26.00;50.97
61488;BME280;47351;53.326;-6.298;2023-07-31T13:33:04;99675.75;;;26.14;50.91
61488;BME280;47351;53.326;-6.298;2023-07-31T13:36:05;99664.77;;;26.40;50.04
61488;BME280;47351;53.326;-6.298;2023-07-31T13:38:56;99661.09;;;26.36;49.20
61488;BME280;47351;53.326;-6.298;2023-07-31T13:41:46;99657.73;;;26.16;49.06
61488;BME280;47351;53.326;-6.298;2023-07-31T13:44:37;99669.20;;;26.09;49.17
61488;BME280;47351;53.326;-6.298;2023-07-31T13:47:27;99660.29;;;26.33;48.98
61488;BME280;47351;53.326;-6.298;2023-07-31T13:50:18;99667.59;;;25.79;49.19
61488;BME280;47351;53.326;-6.298;2023-07-31T13:53:10;99667.08;;;24.94;50.72
61488;BME280;47351;53.326;-6.298;2023-07-31T13:56:00;99669.05;;;23.94;52.76
61488;BME280;47351;53.326;-6.298;2023-07-31T13:58:51;99679.73;;;22.86;55.05
61488;BME280;47351;53.326;-6.298;2023-07-31T14:01:42;99693.39;;;21.99;58.49
61488;BME280;47351;53.326;-6.298;2023-07-31T14:04:33;99692.31;;;21.47;61.34
61488;BME280;47351;53.326;-6.298;2023-07-31T14:07:23;99689.70;;;21.14;62.75
61488;BME280;47351;53.326;-6.298;2023-07-31T14:10:14;99685.69;;;21.07;63.63
61488;BME280;47351;53.326;-6.298;2023-07-31T14:13:05;99680.21;;;21.16;63.54
61488;BME280;47351;53.326;-6.298;2023-07-31T14:15:55;99680.48;;;21.43;62.99
61488;BME280;47351;53.326;-6.298;2023-07-31T14:18:46;99682.52;;;21.77;61.59
61488;BME280;47351;53.326;-6.298;2023-07-31T14:21:37;99673.66;;;22.23;61.24
61488;BME280;47351;53.326;-6.298;2023-07-31T14:24:28;99671.39;;;23.06;59.87
61488;BME280;47351;53.326;-6.298;2023-07-31T14:27:18;99674.63;;;23.60;58.44
61488;BME280;47351;53.326;-6.298;2023-07-31T14:30:09;99679.05;;;23.59;58.08
61488;BME280;47351;53.326;-6.298;2023-07-31T14:33:00;99674.11;;;23.24;58.78
61488;BME280;47351;53.326;-6.298;2023-07-31T14:35:51;99673.58;;;23.01;60.10
61488;BME280;47351;53.326;-6.298;2023-07-31T14:38:41;99674.77;;;22.93;60.50
61488;BME280;47351;53.326;-6.298;2023-07-31T14:41:34;99669.39;;;23.04;60.02
61488;BME280;47351;53.326;-6.298;2023-07-31T14:44:25;99668.80;;;22.90;60.55
61488;BME280;47351;53.326;-6.298;2023-07-31T14:47:16;99677.83;;;22.44;61.38
61488;BME280;47351;53.326;-6.298;2023-07-31T14:50:07;99674.70;;;22.27;61.89
61488;BME280;47351;53.326;-6.298;2023-07-31T14:52:57;99665.11;;;22.36;62.27
61488;BME280;47351;53.326;-6.298;2023-07-31T14:55:48;99660.46;;;22.33;62.46
61488;BME280;47351;53.326;-6.298;2023-07-31T14:58:39;99664.29;;;22.15;62.52